Mar Caribe Primero — EA6222 — position and weather

sailwx.info

Track history (hours):
 
Tides and Currents Weather Stations Pressure Air Temp Water Temp Dewpoint Dewpoint Depression Visibility Wind Speed Wind Dir Waves Ship Positions

Mar Caribe Primero

Last reported at 2016-Sep-12 03:26 UTC. Time now 2016-Sep-28 06:59 UTC.
Position N 43°24' W 003°28'.
Warning: this ship's position is 16 days out of date.

Length 20 m.

Type: Fishing. MMSI: 224073630.

Date/timePositionNaut miles runAvg speedWind from/ knotsBaromVisibWave heightAir tempDewpointWater temp
2016-Sep-12 03:26N 43°24' W 003°28'  
2016-Sep-07 14:08N 45°41' W 003°14'1 0.3
2016-Sep-07 11:33N 45°40' W 003°14'0 0.4
2016-Sep-07 10:33N 45°40' W 003°14'2 2.0
2016-Sep-07 09:33N 45°40' W 003°11'1 0.7
2016-Sep-07 08:26N 45°40' W 003°10'2 1.2
2016-Sep-07 06:33N 45°40' W 003°07'7 1.7
2016-Sep-07 02:26N 45°40' W 003°17'3 1.0
2016-Sep-06 23:20N 45°38' W 003°13'2 1.6
2016-Sep-06 22:07N 45°39' W 003°10'10 0.4
2016-Sep-05 22:33N 45°36' W 003°24'13 5.6
2016-Sep-05 20:12N 45°40' W 003°42'23 6.1
2016-Sep-05 16:26N 46°01' W 003°57'1 1.1
2016-Sep-05 15:05N 46°00' W 003°58'17 4.9
2016-Sep-05 11:33N 46°14' W 004°12'3 0.2
2016-Sep-04 17:30N 46°17' W 004°10'14 1.7
2016-Sep-04 09:22N 46°08' W 003°53'0 0.4
2016-Sep-04 08:29N 46°08' W 003°54'1 1.2
2016-Sep-04 07:32N 46°09' W 003°55'1 1.2
2016-Sep-04 06:33N 46°10' W 003°55'7 3.1
2016-Sep-04 04:27N 46°15' W 003°49'1 1.4
2016-Sep-04 03:33N 46°15' W 003°50'1 1.5
2016-Sep-04 02:33N 46°15' W 003°53'2 1.6
2016-Sep-04 01:33N 46°14' W 003°55'1 1.4
2016-Sep-04 00:34N 46°13' W 003°56'1 1.2
2016-Sep-03 23:33N 46°13' W 003°57'1 0.8
2016-Sep-03 22:34N 46°12' W 003°58'1 0.5
2016-Sep-03 21:34N 46°11' W 003°57'0 0.4
2016-Sep-03 20:34N 46°11' W 003°56'1 0.8
2016-Sep-03 19:34N 46°12' W 003°55'2 1.2
2016-Sep-03 18:14N 46°12' W 003°58'2 2.8
2016-Sep-03 17:33N 46°13' W 003°56'1 0.7
2016-Sep-03 16:33N 46°14' W 003°57'1 0.7
2016-Sep-03 15:33N 46°14' W 003°56'2 1.5
2016-Sep-03 14:21N 46°12' W 003°56'6 6.1
2016-Sep-03 13:27N 46°16' W 004°01'21 5.3
2016-Sep-03 09:28N 46°23' W 004°30'9 1.6
2016-Sep-03 04:06N 46°25' W 004°42'0 0.1
2016-Sep-03 03:18N 46°25' W 004°42'0 0.1
2016-Sep-02 23:33N 46°25' W 004°41'1 0.6
2016-Sep-02 22:22N 46°26' W 004°41'1 0.8
2016-Sep-02 20:32N 46°27' W 004°41'1 0.5
2016-Sep-02 19:32N 46°28' W 004°41'1 0.6
2016-Sep-02 18:33N 46°28' W 004°41'1 0.8
2016-Sep-02 17:34N 46°28' W 004°41'3 2.6
2016-Sep-02 16:24N 46°29' W 004°37'8 0.9
2016-Sep-02 07:23N 46°23' W 004°46'  
Track history (hours):
 
Tides and Currents Weather Stations Pressure Air Temp Water Temp Dewpoint Dewpoint Depression Visibility Wind Speed Wind Dir Waves Ship Positions

Mar Caribe Primero

Last reported at 2016-Sep-12 03:26 UTC. Time now 2016-Sep-28 06:59 UTC.
Position N 43°24' W 003°28'.
Warning: this ship's position is 16 days out of date.

Length 20 m.

Type: Fishing. MMSI: 224073630.

Date/timePositionNaut miles runAvg speedWind from/ knotsBaromVisibWave heightAir tempDewpointWater temp
2016-Sep-12 03:26N 43°24' W 003°28'  
2016-Sep-07 14:08N 45°41' W 003°14'1 0.3
2016-Sep-07 11:33N 45°40' W 003°14'0 0.4
2016-Sep-07 10:33N 45°40' W 003°14'2 2.0
2016-Sep-07 09:33N 45°40' W 003°11'1 0.7
2016-Sep-07 08:26N 45°40' W 003°10'2 1.2
2016-Sep-07 06:33N 45°40' W 003°07'7 1.7
2016-Sep-07 02:26N 45°40' W 003°17'3 1.0
2016-Sep-06 23:20N 45°38' W 003°13'2 1.6
2016-Sep-06 22:07N 45°39' W 003°10'10 0.4
2016-Sep-05 22:33N 45°36' W 003°24'13 5.6
2016-Sep-05 20:12N 45°40' W 003°42'23 6.1
2016-Sep-05 16:26N 46°01' W 003°57'1 1.1
2016-Sep-05 15:05N 46°00' W 003°58'17 4.9
2016-Sep-05 11:33N 46°14' W 004°12'3 0.2
2016-Sep-04 17:30N 46°17' W 004°10'14 1.7
2016-Sep-04 09:22N 46°08' W 003°53'0 0.4
2016-Sep-04 08:29N 46°08' W 003°54'1 1.2
2016-Sep-04 07:32N 46°09' W 003°55'1 1.2
2016-Sep-04 06:33N 46°10' W 003°55'7 3.1
2016-Sep-04 04:27N 46°15' W 003°49'1 1.4
2016-Sep-04 03:33N 46°15' W 003°50'1 1.5
2016-Sep-04 02:33N 46°15' W 003°53'2 1.6
2016-Sep-04 01:33N 46°14' W 003°55'1 1.4
2016-Sep-04 00:34N 46°13' W 003°56'1 1.2
2016-Sep-03 23:33N 46°13' W 003°57'1 0.8
2016-Sep-03 22:34N 46°12' W 003°58'1 0.5
2016-Sep-03 21:34N 46°11' W 003°57'0 0.4
2016-Sep-03 20:34N 46°11' W 003°56'1 0.8
2016-Sep-03 19:34N 46°12' W 003°55'2 1.2
2016-Sep-03 18:14N 46°12' W 003°58'2 2.8
2016-Sep-03 17:33N 46°13' W 003°56'1 0.7
2016-Sep-03 16:33N 46°14' W 003°57'1 0.7
2016-Sep-03 15:33N 46°14' W 003°56'2 1.5
2016-Sep-03 14:21N 46°12' W 003°56'6 6.1
2016-Sep-03 13:27N 46°16' W 004°01'21 5.3
2016-Sep-03 09:28N 46°23' W 004°30'9 1.6
2016-Sep-03 04:06N 46°25' W 004°42'0 0.1
2016-Sep-03 03:18N 46°25' W 004°42'0 0.1
2016-Sep-02 23:33N 46°25' W 004°41'1 0.6
2016-Sep-02 22:22N 46°26' W 004°41'1 0.8
2016-Sep-02 20:32N 46°27' W 004°41'1 0.5
2016-Sep-02 19:32N 46°28' W 004°41'1 0.6
2016-Sep-02 18:33N 46°28' W 004°41'1 0.8
2016-Sep-02 17:34N 46°28' W 004°41'3 2.6
2016-Sep-02 16:24N 46°29' W 004°37'8 0.9
2016-Sep-02 07:23N 46°23' W 004°46'  

Dump ship's entire track history